createdAt,value
2022-09-26T00:09:18.771Z,99909.53
2022-09-26T00:19:25.449Z,99905.47
2022-09-26T00:29:29.134Z,99901.03
2022-09-26T00:39:34.401Z,99907.06
2022-09-26T00:49:43.023Z,99893.53
2022-09-26T00:59:54.450Z,99883.66
2022-09-26T01:09:59.121Z,99873.44
2022-09-26T01:20:26.545Z,99862.06
2022-09-26T01:30:38.491Z,99846.75
2022-09-26T01:40:50.212Z,99846.28
2022-09-26T01:51:01.924Z,99833.66
2022-09-26T02:01:11.112Z,99832.66
2022-09-26T02:11:20.579Z,99814.56
2022-09-26T02:21:25.449Z,99812.78
2022-09-26T02:31:35.411Z,99806.34
2022-09-26T02:41:50.751Z,99799.56
2022-09-26T02:52:17.077Z,99788.69
2022-09-26T03:02:29.428Z,99774.25
2022-09-26T03:12:34.949Z,99758.78
2022-09-26T03:22:39.320Z,99739.16
2022-09-26T03:32:44.272Z,99737.81
2022-09-26T03:42:48.187Z,99735.78
2022-09-26T03:52:55.894Z,99700.88
2022-09-26T04:03:02.997Z,99702.88
2022-09-26T04:13:08.005Z,99685.13
2022-09-26T04:23:11.644Z,99662.75
2022-09-26T04:33:16.813Z,99655.00
2022-09-26T04:43:20.653Z,99645.81
2022-09-26T04:53:26.689Z,99639.75
2022-09-26T05:03:31.752Z,99635.41
2022-09-26T05:13:40.052Z,99638.59
2022-09-26T05:24:01.251Z,99620.53
2022-09-26T05:34:07.716Z,99618.03
2022-09-26T05:44:11.420Z,99606.31
2022-09-26T05:54:16.549Z,99602.28
2022-09-26T06:04:20.171Z,99596.59
2022-09-26T06:14:26.222Z,99582.00
2022-09-26T06:24:30.166Z,99586.44
2022-09-26T06:34:36.579Z,99575.41
2022-09-26T06:44:40.213Z,99548.22
2022-09-26T06:54:48.185Z,99554.09
2022-09-26T07:04:52.271Z,99544.59
2022-09-26T07:14:59.688Z,99531.41
2022-09-26T07:25:03.373Z,99527.06
2022-09-26T07:35:09.401Z,99514.91
2022-09-26T07:45:29.953Z,99484.56
2022-09-26T07:55:55.175Z,99485.16
2022-09-26T08:06:02.061Z,99477.47
2022-09-26T08:16:08.304Z,99471.75
2022-09-26T08:26:12.096Z,99471.53
2022-09-26T08:36:17.454Z,99448.34
2022-09-26T08:46:47.125Z,99447.38
2022-09-26T08:56:57.631Z,99440.78
2022-09-26T09:07:12.858Z,99418.69
2022-09-26T09:17:28.396Z,99413.44
2022-09-26T09:27:53.392Z,99406.28
2022-09-26T09:38:00.486Z,99391.03
2022-09-26T09:48:05.442Z,99373.53
2022-09-26T09:58:25.565Z,99352.31
2022-09-26T10:08:32.272Z,99337.66
2022-09-26T10:18:58.281Z,99327.00
2022-09-26T10:29:11.623Z,99301.03
2022-09-26T10:39:38.484Z,99304.78
2022-09-26T10:49:50.943Z,99271.66
2022-09-26T10:59:57.380Z,99256.47
2022-09-26T11:10:10.025Z,99255.69
2022-09-26T11:20:32.164Z,99253.53
2022-09-26T11:30:42.703Z,99232.31
2022-09-26T11:41:36.512Z,99222.94
2022-09-26T11:52:00.694Z,99215.28
2022-09-26T12:02:24.417Z,99206.78
2022-09-26T12:12:40.535Z,99190.69
2022-09-26T12:22:56.009Z,99169.38
2022-09-26T12:33:24.680Z,99155.91
2022-09-26T12:43:56.634Z,99118.50
2022-09-26T12:54:55.611Z,99104.88
2022-09-26T13:05:23.909Z,99103.19
2022-09-26T13:15:35.374Z,99091.25
2022-09-26T13:25:49.508Z,99075.09
2022-09-26T13:36:04.498Z,99055.56
2022-09-26T13:46:21.716Z,99046.16
2022-09-26T13:56:49.432Z,99035.97
2022-09-26T14:07:33.837Z,99024.91
2022-09-26T14:18:24.991Z,99018.09
2022-09-26T14:28:38.495Z,98998.53
2022-09-26T14:38:42.440Z,98973.03
2022-09-26T14:48:48.097Z,98962.84
2022-09-26T14:58:53.000Z,98934.84
2022-09-26T15:09:00.168Z,98920.38
2022-09-26T15:19:13.969Z,98915.31
2022-09-26T15:29:19.278Z,98903.38
2022-09-26T15:39:43.811Z,98874.53
2022-09-26T15:49:49.253Z,98866.03
2022-09-26T15:59:53.141Z,98868.53
2022-09-26T16:09:59.498Z,98843.13
2022-09-26T16:20:06.594Z,98832.03
2022-09-26T16:30:42.119Z,98828.59
2022-09-26T16:40:52.483Z,98814.16
2022-09-26T16:51:17.830Z,98802.28
2022-09-26T17:01:39.656Z,98777.66
2022-09-26T17:11:48.265Z,98759.84
2022-09-26T17:21:53.010Z,98764.13
2022-09-26T17:32:08.855Z,98761.53
2022-09-26T17:42:17.069Z,98758.94
2022-09-26T17:52:28.911Z,98750.44
2022-09-26T18:02:35.755Z,98730.94
2022-09-26T18:12:47.282Z,98745.34
2022-09-26T18:22:53.619Z,98757.88
2022-09-26T18:32:59.302Z,98757.75
2022-09-26T18:43:05.974Z,98766.88
2022-09-26T18:53:17.642Z,98761.72
2022-09-26T19:03:24.810Z,98764.22
2022-09-26T19:13:32.605Z,98770.09
2022-09-26T19:23:37.856Z,98778.41
2022-09-26T19:33:46.704Z,98766.56
2022-09-26T19:43:50.486Z,98761.31
2022-09-26T19:53:55.900Z,98745.94
2022-09-26T20:04:01.706Z,98725.53
2022-09-26T20:14:25.327Z,98719.59
2022-09-26T20:24:31.741Z,98696.66
2022-09-26T20:34:36.932Z,98681.53
2022-09-26T20:44:41.350Z,98656.84
2022-09-26T20:54:47.129Z,98661.00
2022-09-26T21:04:55.038Z,98626.22
2022-09-26T21:15:00.187Z,98619.41
2022-09-26T21:25:03.934Z,98610.03
2022-09-26T21:35:10.810Z,98593.19
2022-09-26T21:45:16.335Z,98575.56
2022-09-26T21:55:27.315Z,98570.22
2022-09-26T22:05:31.305Z,98550.09
2022-09-26T22:15:39.139Z,98537.38
2022-09-26T22:25:49.169Z,98523.03
2022-09-26T22:35:54.413Z,98518.88
2022-09-26T22:46:03.415Z,98509.56
2022-09-26T22:56:11.895Z,98501.84
2022-09-26T23:06:16.355Z,98471.44
2022-09-26T23:16:24.014Z,98476.50
2022-09-26T23:26:36.967Z,98469.84
2022-09-26T23:36:43.801Z,98446.88
2022-09-26T23:46:50.433Z,98441.09
2022-09-26T23:56:55.814Z,98425.91
